VISIB

Not for real navigation. The accuracy of this data is not assured See disclaimer for more information



ICAO NAME COUNTRY WIND Kt GUST Kt VIS m TEMP/DEW C BARO METAR
EFJO Joensuu Finland 4 0 150 3/3 29.32 EFJO 252350Z AUTO 14004KT 110V180 0150 FG VV002 03/03 Q0993
ENKR Kirkenes Lufthavn Norway 2 0 200 1/1 29.23 ENKR 252350Z AUTO 19002KT 0200 R06/P2000N R24/0800N FG SCT001/// BKN041/// 01/01 Q0990 RMK WIND 731F
LIEA Alghero Italy 3 0 200 14/13 30.00 LIEA 252350Z 06003KT 0200 R20/0550V0900U FG NSC 14/13 Q1016
EFTU Turku Finland 2 0 300 2/2 29.38 EFTU 252350Z AUTO VRB02KT 0300 R26/0375N FG VV001 02/02 Q0995
YABA 5 0 300 10/0 30.00 YABA 252330Z AUTO 02005KT 0300 // ////// 10/// Q1016

Show more